Time;durP1;ratioP1;P1;durP2;ratioP2;P2;SDS_P1;SDS_P2;PMS_P1;PMS_P2;Temp;Humidity;BMP_temperature;BMP_pressure;BME280_temperature;BME280_humidity;BME280_pressure;Samples;Min_cycle;Max_cycle;Signal;HPM_P1;HPM_P2
2021/08/19 04:58:57;;;;;;;;;;;;;;;16.13;81.17;99932.87;1838540;77;20158;-69
2021/08/19 05:01:27;;;;;;;;;;;;;;;16.07;81.74;99935.51;1763939;80;20117;-70
2021/08/19 05:03:54;;;;;;;;;;;;;;;16.05;82.44;99929.54;1795357;78;21130;-71
2021/08/19 05:06:21;;;;;;;;;;;;;;;16.05;83.09;99931.33;1795728;80;20461;-68
2021/08/19 05:08:49;;;;;;;;;;;;;;;16.05;83.56;99915.09;1751648;80;20078;-70
2021/08/19 05:11:22;;;;;;;;;;;;;;;16.07;83.47;99908.41;1777608;80;20403;-69
2021/08/19 05:13:50;;;;;;;;;;;;;;;16.12;83.55;99910.19;1776589;80;20106;-68
2021/08/19 05:16:17;;;;;;;;;;;;;;;16.16;84.03;99905.04;1790688;78;21109;-69
2021/08/19 05:18:47;;;;;;;;;;;;;;;16.20;84.51;99900.73;1782459;80;20432;-70
2021/08/19 05:21:15;;;;;;;;;;;;;;;16.23;84.16;99897.02;1796409;80;20094;-69
2021/08/19 05:23:47;;;;;;;;;;;;;;;16.27;84.42;99896.64;1795228;78;20404;-69
2021/08/19 05:26:14;;;;;;;;;;;;;;;16.29;84.17;99882.91;1778498;80;20433;-69
2021/08/19 05:28:42;;;;;;;;;;;;;;;16.34;83.76;99886.47;1806725;79;20086;-65
2021/08/19 05:31:11;;;;;;;;;;;;;;;16.37;83.24;99881.44;1755547;80;20144;-69
2021/08/19 05:33:40;;;;;;;;;;;;;;;16.39;83.17;99880.36;1715349;83;20122;-74
2021/08/19 05:36:08;;;;;;;;;;;;;;;16.43;82.42;99875.65;1743840;82;20112;-67
2021/08/19 05:38:36;;;;;;;;;;;;;;;16.44;81.86;99869.44;1736789;82;20107;-69
2021/08/19 05:41:04;;;;;;;;;;;;;;;16.46;81.44;99871.45;1717500;82;21033;-71
2021/08/19 05:43:36;;;;;;;;;;;;;;;16.46;81.46;99872.77;1718781;82;20123;-70
2021/08/19 05:46:03;;;;;;;;;;;;;;;16.49;81.55;99862.00;1698577;82;20099;-82
2021/08/19 05:48:30;;;;;;;;;;;;;;;16.50;81.35;99864.51;1744817;82;20083;-72
2021/08/19 05:50:57;;;;;;;;;;;;;;;16.50;81.16;99861.05;1742696;81;20190;-74
2021/08/19 05:53:25;;;;;;;;;;;;;;;16.50;81.18;99855.78;1737432;81;21686;-72
2021/08/19 05:55:52;;;;;;;;;;;;;;;16.50;81.40;99856.63;1721968;82;20299;-73
2021/08/19 05:58:19;;;;;;;;;;;;;;;16.53;81.29;99862.11;1728294;82;20151;-72
2021/08/19 06:00:47;;;;;;;;;;;;;;;16.55;81.23;99860.19;1749166;80;20118;-71
2021/08/19 06:03:15;;;;;;;;;;;;;;;16.59;80.93;99862.91;1713803;82;20121;-70
2021/08/19 06:05:42;;;;;;;;;;;;;;;16.62;81.06;99861.34;1707334;83;20595;-73
2021/08/19 06:08:10;;;;;;;;;;;;;;;16.64;80.84;99860.28;1704442;82;20108;-73
2021/08/19 06:10:44;;;;;;;;;;;;;;;16.71;81.37;99867.66;1706252;83;20368;-71
2021/08/19 06:13:14;;;;;;;;;;;;;;;16.79;82.05;99869.17;1713475;83;20133;-71
2021/08/19 06:15:41;;;;;;;;;;;;;;;16.87;81.87;99870.16;1685129;84;20099;-74
2021/08/19 06:18:10;;;;;;;;;;;;;;;16.98;81.50;99865.31;1687911;83;20459;-73
2021/08/19 06:20:38;;;;;;;;;;;;;;;17.09;81.27;99873.61;1673861;84;20160;-70
2021/08/19 06:23:13;;;;;;;;;;;;;;;17.20;81.38;99876.96;1668303;84;20505;-74
2021/08/19 06:25:46;;;;;;;;;;;;;;;17.35;81.21;99869.55;1683661;84;20160;-73
2021/08/19 06:28:24;;;;;;;;;;;;;;;17.52;81.09;99873.36;1682287;84;20101;-74
2021/08/19 06:30:49;;;;;;;;;;;;;;;17.69;80.85;99881.94;1690929;83;21202;-69
2021/08/19 06:33:16;;;;;;;;;;;;;;;17.84;80.83;99883.23;1680050;84;20455;-68
2021/08/19 06:35:53;;;;;;;;;;;;;;;17.96;80.30;99881.31;1693981;84;20177;-71
2021/08/19 06:38:23;;;;;;;;;;;;;;;18.08;80.16;99881.51;1691772;84;20077;-70
2021/08/19 06:40:50;;;;;;;;;;;;;;;18.21;79.33;99878.13;1647181;83;20148;-67
2021/08/19 06:43:17;;;;;;;;;;;;;;;18.35;78.61;99876.88;1690324;84;21933;-71
2021/08/19 06:45:44;;;;;;;;;;;;;;;18.49;78.00;99881.71;1691243;83;20165;-74
2021/08/19 06:48:11;;;;;;;;;;;;;;;18.60;76.43;99880.77;1659052;86;20449;-72
2021/08/19 06:50:41;;;;;;;;;;;;;;;18.71;75.61;99883.74;1682533;84;20109;-76
2021/08/19 06:53:11;;;;;;;;;;;;;;;18.83;75.58;99883.91;1692142;84;20115;-72
2021/08/19 06:55:38;;;;;;;;;;;;;;;18.95;74.84;99876.17;1693186;85;21175;-75
2021/08/19 06:58:05;;;;;;;;;;;;;;;19.08;74.05;99876.70;1702097;83;20450;-72
2021/08/19 07:00:32;;;;;;;;;;;;;;;19.20;73.75;99878.16;1705166;83;20227;-69
2021/08/19 07:03:03;;;;;;;;;;;;;;;19.36;72.74;99875.39;1722460;83;20127;-80
2021/08/19 07:05:33;;;;;;;;;;;;;;;19.51;72.10;99873.97;1727781;82;20123;-70
2021/08/19 07:08:01;;;;;;;;;;;;;;;19.75;70.83;99873.41;1729539;82;21148;-72
2021/08/19 07:10:28;;;;;;;;;;;;;;;20.03;70.17;99878.97;1723896;83;20114;-74
2021/08/19 07:12:56;;;;;;;;;;;;;;;20.31;68.47;99879.25;1723796;83;20453;-75
2021/08/19 07:15:22;;;;;;;;;;;;;;;20.52;67.70;99882.91;1723567;83;20099;-73
2021/08/19 07:17:54;;;;;;;;;;;;;;;20.71;66.53;99878.44;1718737;83;20111;-73
2021/08/19 07:20:23;;;;;;;;;;;;;;;20.79;66.05;99872.71;1722254;83;20717;-73
2021/08/19 07:22:50;;;;;;;;;;;;;;;20.86;65.76;99882.16;1722609;83;20114;-76
2021/08/19 07:25:21;;;;;;;;;;;;;;;20.95;66.34;99887.84;1722554;83;20134;-73
2021/08/19 07:27:50;;;;;;;;;;;;;;;21.11;65.87;99887.95;1733818;82;20134;-75
2021/08/19 07:30:18;;;;;;;;;;;;;;;21.48;64.20;99889.48;1727546;82;20154;-72
2021/08/19 07:32:47;;;;;;;;;;;;;;;22.00;63.05;99884.80;1719395;82;21217;-72
2021/08/19 07:35:17;;;;;;;;;;;;;;;22.57;60.88;99882.23;1721511;82;20486;-69
2021/08/19 07:37:50;;;;;;;;;;;;;;;23.25;60.44;99883.94;1725221;82;20096;-74
2021/08/19 07:40:25;;;;;;;;;;;;;;;23.98;58.14;99880.66;1723561;82;20082;-70
2021/08/19 07:42:56;;;;;;;;;;;;;;;24.62;55.03;99879.34;1688083;84;20436;-68
2021/08/19 07:45:25;;;;;;;;;;;;;;;25.14;53.36;99884.67;1728308;82;20083;-66
2021/08/19 07:47:56;;;;;;;;;;;;;;;25.51;52.03;99890.39;1737329;82;20119;-73
2021/08/19 07:50:53;;;;;;;;;;;;;;;25.86;49.40;99889.29;1711047;82;20108;-73
2021/08/19 07:53:23;;;;;;;;;;;;;;;25.87;48.32;99889.10;1728536;82;20168;-73
2021/08/19 07:55:50;;;;;;;;;;;;;;;25.86;49.34;99889.29;1725079;83;20103;-71
2021/08/19 07:58:17;;;;;;;;;;;;;;;25.90;47.39;99894.06;1723061;83;21944;-73
2021/08/19 08:00:50;;;;;;;;;;;;;;;25.81;45.66;99889.84;1724690;83;20087;-72
2021/08/19 08:03:47;;;;;;;;;;;;;;;25.75;46.58;99887.10;1724438;82;20090;-68
2021/08/19 08:06:16;;;;;;;;;;;;;;;25.52;46.75;99888.05;1709187;81;20129;-70
2021/08/19 08:08:43;;;;;;;;;;;;;;;25.28;46.13;99883.50;1728107;81;20155;-68
2021/08/19 08:11:10;;;;;;;;;;;;;;;25.08;46.02;99879.25;1735260;82;21195;-69
2021/08/19 08:13:38;;;;;;;;;;;;;;;24.89;44.99;99878.73;1736128;82;20156;-67
2021/08/19 08:16:06;;;;;;;;;;;;;;;24.63;45.47;99879.66;1736965;82;20386;-69
2021/08/19 08:18:35;;;;;;;;;;;;;;;24.49;47.03;99877.78;1737051;82;20089;-76
2021/08/19 08:21:03;;;;;;;;;;;;;;;24.60;46.70;99876.85;1736851;82;20119;-81
2021/08/19 08:23:35;;;;;;;;;;;;;;;24.86;46.86;99874.27;1742732;82;20456;-71
2021/08/19 08:26:04;;;;;;;;;;;;;;;25.17;45.39;99874.16;1736693;82;20088;-71
2021/08/19 08:28:36;;;;;;;;;;;;;;;25.33;45.19;99877.94;1718764;82;20123;-74
2021/08/19 08:31:03;;;;;;;;;;;;;;;25.51;45.36;99864.23;1736845;82;20454;-73
2021/08/19 08:33:32;;;;;;;;;;;;;;;25.64;44.03;99875.07;1736777;82;20099;-72
2021/08/19 08:36:02;;;;;;;;;;;;;;;25.54;43.79;99867.86;1734342;82;21115;-72
2021/08/19 08:38:34;;;;;;;;;;;;;;;25.45;44.06;99871.13;1736235;82;20135;-71
2021/08/19 08:40:57;;;;;;;;;;;;;;;25.46;43.55;99867.96;1735171;82;20469;-71
2021/08/19 08:43:28;;;;;;;;;;;;;;;25.46;43.79;99874.62;1727059;82;20123;-76
2021/08/19 08:45:55;;;;;;;;;;;;;;;25.47;43.98;99869.11;1722177;82;20520;-69
2021/08/19 08:48:23;;;;;;;;;;;;;;;25.62;43.62;99866.91;1745399;82;21112;-81
2021/08/19 08:50:56;;;;;;;;;;;;;;;25.81;42.65;99868.52;1743117;82;20152;-68
2021/08/19 08:53:44;;;;;;;;;;;;;;;25.97;42.12;99864.79;1738406;82;20079;-73
2021/08/19 08:56:12;;;;;;;;;;;;;;;25.98;39.87;99865.11;1736979;82;20087;-73
2021/08/19 08:58:42;;;;;;;;;;;;;;;25.78;41.00;99870.72;1743716;82;20136;-71
2021/08/19 09:01:09;;;;;;;;;;;;;;;25.71;41.28;99871.16;1746979;82;21077;-73
2021/08/19 09:03:38;;;;;;;;;;;;;;;25.70;41.67;99870.83;1747632;82;20135;-74
2021/08/19 09:06:04;;;;;;;;;;;;;;;25.74;41.51;99864.11;1746415;82;20126;-78
2021/08/19 09:08:31;;;;;;;;;;;;;;;25.81;41.33;99863.17;1745933;82;20111;-70
2021/08/19 09:11:01;;;;;;;;;;;;;;;25.84;41.10;99868.14;1746879;82;20091;-71
2021/08/19 09:13:30;;;;;;;;;;;;;;;25.71;40.14;99865.31;1720692;82;21100;-71
2021/08/19 09:16:15;;;;;;;;;;;;;;;25.43;40.43;99873.16;1746586;82;20204;-72
2021/08/19 09:18:43;;;;;;;;;;;;;;;25.21;41.57;99865.58;1745188;82;20083;-71
2021/08/19 09:21:18;;;;;;;;;;;;;;;25.14;41.59;99866.52;1746366;82;20138;-71
2021/08/19 09:24:15;;;;;;;;;;;;;;;25.12;42.08;99855.22;1741697;82;20147;-72
2021/08/19 09:26:42;;;;;;;;;;;;;;;25.13;41.69;99857.70;1705357;82;21187;-66
2021/08/19 09:29:25;;;;;;;;;;;;;;;25.13;42.33;99852.38;1719184;82;20146;-66
2021/08/19 09:32:05;;;;;;;;;;;;;;;25.18;41.94;99857.16;1743225;81;20386;-68
2021/08/19 09:34:41;;;;;;;;;;;;;;;25.21;41.37;99854.09;1641373;83;20281;-67
2021/08/19 09:37:14;;;;;;;;;;;;;;;25.21;41.83;99856.25;1710841;82;20479;-72
2021/08/19 09:39:51;;;;;;;;;;;;;;;25.31;41.52;99853.31;1717203;83;21162;-69
2021/08/19 09:42:32;;;;;;;;;;;;;;;25.37;41.75;99853.91;1721579;82;20188;-73
2021/08/19 09:45:24;;;;;;;;;;;;;;;25.37;42.21;99857.91;1727365;82;20085;-68
2021/08/19 09:47:51;;;;;;;;;;;;;;;25.41;42.08;99853.03;1717284;83;20118;-67
2021/08/19 09:50:24;;;;;;;;;;;;;;;25.39;41.46;99859.05;1717379;83;20440;-67
2021/08/19 09:53:02;;;;;;;;;;;;;;;25.30;41.61;99861.48;1715903;83;21250;-66
2021/08/19 09:55:43;;;;;;;;;;;;;;;25.25;42.11;99864.20;1716874;82;20160;-67
2021/08/19 09:58:12;;;;;;;;;;;;;;;25.31;42.22;99855.97;1715802;82;20102;-67
2021/08/19 10:00:46;;;;;;;;;;;;;;;25.40;42.29;99865.53;1698141;83;20123;-68
2021/08/19 10:03:19;;;;;;;;;;;;;;;25.40;41.88;99870.86;1685989;84;20176;-68
2021/08/19 10:05:49;;;;;;;;;;;;;;;25.38;41.74;99872.88;1731071;81;21158;-66
2021/08/19 10:08:15;;;;;;;;;;;;;;;25.46;40.40;99868.79;1738018;81;20107;-65
2021/08/19 10:10:49;;;;;;;;;;;;;;;25.57;40.47;99864.32;1766143;81;20124;-70
2021/08/19 10:13:27;;;;;;;;;;;;;;;25.55;40.74;99862.34;1766543;80;20451;-67
2021/08/19 10:15:55;;;;;;;;;;;;;;;25.44;39.09;99868.15;1748286;81;20115;-66
2021/08/19 10:18:29;;;;;;;;;;;;;;;25.28;39.72;99864.84;1736629;82;20479;-67
2021/08/19 10:21:03;;;;;;;;;;;;;;;25.13;40.74;99859.54;1736779;82;20135;-67
2021/08/19 10:23:31;;;;;;;;;;;;;;;25.07;39.89;99859.77;1734081;82;20092;-66
2021/08/19 10:26:05;;;;;;;;;;;;;;;25.04;40.53;99852.14;1736684;82;20095;-66
2021/08/19 10:28:58;;;;;;;;;;;;;;;25.00;39.17;99850.84;1736651;82;20458;-66
2021/08/19 10:31:43;;;;;;;;;;;;;;;24.89;39.93;99843.27;1736791;82;20972;-66
2021/08/19 10:34:19;;;;;;;;;;;;;;;24.77;40.18;99840.77;1724044;82;20112;-67
2021/08/19 10:37:14;;;;;;;;;;;;;;;24.67;40.62;99849.51;1714489;82;20126;-66
2021/08/19 10:39:46;;;;;;;;;;;;;;;24.43;40.77;99848.71;1736421;82;20099;-68
2021/08/19 10:42:31;;;;;;;;;;;;;;;24.19;41.70;99843.07;1727969;82;20470;-66
2021/08/19 10:45:10;;;;;;;;;;;;;;;23.96;41.52;99830.29;1736677;82;21527;-70
2021/08/19 10:47:42;;;;;;;;;;;;;;;23.78;42.66;99829.73;1732568;82;20147;-67
2021/08/19 10:53:42;;;;;;;;;;;;;;;23.50;43.56;99839.52;1734908;82;20111;-68
2021/08/19 10:56:23;;;;;;;;;;;;;;;23.35;43.69;99836.42;1715521;82;20092;-69
2021/08/19 10:59:21;;;;;;;;;;;;;;;23.15;44.94;99825.39;1735549;82;20111;-68
2021/08/19 11:01:51;;;;;;;;;;;;;;;23.03;45.54;99826.25;1736375;82;20099;-66
2021/08/19 11:04:44;;;;;;;;;;;;;;;22.92;44.15;99824.79;1733920;82;20129;-65
2021/08/19 11:07:15;;;;;;;;;;;;;;;22.80;44.75;99823.48;1725824;82;20180;-67
2021/08/19 11:09:42;;;;;;;;;;;;;;;22.72;45.05;99827.48;1705054;83;20167;-66
2021/08/19 11:12:10;;;;;;;;;;;;;;;22.65;45.55;99832.30;1723517;83;21101;-66
2021/08/19 11:14:39;;;;;;;;;;;;;;;22.58;44.93;99821.02;1723041;83;20168;-68
2021/08/19 11:17:05;;;;;;;;;;;;;;;22.52;45.43;99827.00;1737567;82;20087;-67
2021/08/19 11:19:34;;;;;;;;;;;;;;;22.49;45.37;99817.22;1728857;82;20071;-66
2021/08/19 11:22:02;;;;;;;;;;;;;;;22.47;44.52;99820.03;1726720;81;20118;-65
2021/08/19 11:24:32;;;;;;;;;;;;;;;22.49;44.57;99819.88;1737793;82;20135;-68
2021/08/19 11:27:11;;;;;;;;;;;;;;;22.50;43.21;99824.18;1711015;82;20170;-74
2021/08/19 11:29:42;;;;;;;;;;;;;;;22.49;42.25;99824.68;1706373;82;20202;-69
2021/08/19 11:32:11;;;;;;;;;;;;;;;22.49;42.86;99830.48;1686066;83;20117;-67
2021/08/19 11:34:46;;;;;;;;;;;;;;;22.47;43.87;99829.82;1718690;82;20154;-65
2021/08/19 11:37:28;;;;;;;;;;;;;;;22.49;43.31;99816.72;1727380;81;20178;-66
2021/08/19 11:40:09;;;;;;;;;;;;;;;22.52;43.43;99823.52;1726430;82;20138;-67
2021/08/19 11:42:37;;;;;;;;;;;;;;;22.56;42.75;99835.45;1733698;81;20186;-66
2021/08/19 11:45:19;;;;;;;;;;;;;;;22.57;42.07;99837.94;1734546;82;20139;-73
2021/08/19 11:47:46;;;;;;;;;;;;;;;22.51;42.48;99825.84;1731101;82;20151;-69
2021/08/19 11:50:26;;;;;;;;;;;;;;;22.49;42.98;99829.16;1732312;82;21194;-68
2021/08/19 11:53:00;;;;;;;;;;;;;;;22.48;43.34;99834.96;1728736;83;20103;-68
2021/08/19 11:55:30;;;;;;;;;;;;;;;22.48;42.97;99834.96;1731929;82;20377;-67
2021/08/19 11:58:16;;;;;;;;;;;;;;;22.48;41.70;99832.80;1735747;82;20146;-66
2021/08/19 12:01:07;;;;;;;;;;;;;;;22.51;41.02;99831.14;1736875;82;20092;-67
2021/08/19 12:03:47;;;;;;;;;;;;;;;22.51;41.26;99838.61;1734852;81;21804;-71
2021/08/19 12:06:18;;;;;;;;;;;;;;;22.55;40.16;99837.78;1726531;82;20095;-65
2021/08/19 12:08:57;;;;;;;;;;;;;;;22.57;40.03;99828.66;1735225;82;20398;-69
2021/08/19 12:11:42;;;;;;;;;;;;;;;22.60;40.37;99832.80;1729122;82;20067;-68
2021/08/19 12:14:12;;;;;;;;;;;;;;;22.63;40.55;99838.61;1735032;82;20139;-68
2021/08/19 12:16:49;;;;;;;;;;;;;;;22.66;41.09;99833.45;1720161;82;20102;-67
2021/08/19 12:19:24;;;;;;;;;;;;;;;22.69;41.78;99832.30;1707010;84;21134;-68
2021/08/19 12:22:20;;;;;;;;;;;;;;;;;;;;;
2021/08/19 12:24:47;;;;;;;;;;;;;;;22.72;42.02;99838.59;1736626;82;20092;-65
2021/08/19 12:27:20;;;;;;;;;;;;;;;22.78;41.13;99836.59;1735263;82;20394;-71
2021/08/19 12:29:56;;;;;;;;;;;;;;;22.85;40.86;99837.08;1736784;82;20135;-68
2021/08/19 12:32:32;;;;;;;;;;;;;;;22.94;41.09;99838.73;1736277;82;20083;-72
2021/08/19 12:35:08;;;;;;;;;;;;;;;23.00;40.75;99835.06;1737584;82;20154;-72
2021/08/19 12:37:38;;;;;;;;;;;;;;;23.01;40.23;99830.91;1736305;82;20120;-71
2021/08/19 12:40:10;;;;;;;;;;;;;;;23.00;40.99;99827.92;1736548;82;20092;-72
2021/08/19 12:42:37;;;;;;;;;;;;;;;23.01;41.27;99823.44;1736851;82;21296;-69
2021/08/19 12:45:09;;;;;;;;;;;;;;;23.06;41.07;99827.74;1736452;82;20606;-68
2021/08/19 12:47:57;;;;;;;;;;;;;;;23.08;41.43;99826.58;1736729;82;20095;-71
2021/08/19 12:50:24;;;;;;;;;;;;;;;23.11;40.44;99820.92;1736535;82;20108;-72
2021/08/19 12:52:51;;;;;;;;;;;;;;;23.11;40.62;99830.72;1736452;82;20143;-70
2021/08/19 12:55:18;;;;;;;;;;;;;;;23.10;41.18;99820.59;1737242;82;21737;-67
2021/08/19 12:57:54;;;;;;;;;;;;;;;23.13;40.67;99824.73;1737880;82;20120;-71
2021/08/19 13:00:40;;;;;;;;;;;;;;;23.12;40.48;99829.22;1729870;81;20425;-72
2021/08/19 13:06:53;;;;;;;;;;;;;;;22.94;39.96;99829.93;1724254;81;20080;-69
2021/08/19 13:09:29;;;;;;;;;;;;;;;22.88;40.40;99831.94;1708656;83;20082;-72
2021/08/19 13:12:09;;;;;;;;;;;;;;;22.87;40.39;99838.24;1631319;86;20242;-69
2021/08/19 13:14:52;;;;;;;;;;;;;;;22.85;40.54;99835.75;1637795;87;20167;-77
2021/08/19 13:17:49;;;;;;;;;;;;;;;22.83;40.41;99832.44;1726928;81;20436;-70
2021/08/19 13:23:33;;;;;;;;;;;;;;;22.84;40.47;99822.65;1681559;84;20131;-70
2021/08/19 13:26:26;;;;;;;;;;;;;;;22.85;40.30;99819.83;1671316;85;20467;-69
